createdAt,value
2023-04-14T00:00:38.843Z,0.85
2023-04-14T00:03:06.789Z,1.02
2023-04-14T00:05:34.929Z,1.63
2023-04-14T00:08:02.320Z,1.30
2023-04-14T00:10:29.765Z,1.02
2023-04-14T00:12:57.080Z,1.40
2023-04-14T00:15:24.519Z,1.40
2023-04-14T00:17:51.921Z,1.10
2023-04-14T00:20:19.276Z,1.38
2023-04-14T00:22:46.561Z,1.48
2023-04-14T00:25:13.860Z,1.63
2023-04-14T00:27:41.175Z,2.72
2023-04-14T00:30:09.143Z,3.25
2023-04-14T00:32:36.666Z,2.40
2023-04-14T00:35:04.154Z,2.60
2023-04-14T00:37:31.603Z,2.63
2023-04-14T00:40:00.640Z,2.60
2023-04-14T00:42:27.981Z,1.63
2023-04-14T00:44:55.321Z,1.40
2023-04-14T00:47:23.308Z,1.40
2023-04-14T00:49:51.513Z,1.63
2023-04-14T00:52:19.148Z,1.10
2023-04-14T00:54:46.469Z,1.38
2023-04-14T00:57:13.757Z,1.10
2023-04-14T00:59:41.419Z,1.50
2023-04-14T01:02:09.157Z,1.80
2023-04-14T01:04:45.131Z,1.85
2023-04-14T01:07:20.392Z,3.35
2023-04-14T01:09:47.912Z,2.75
2023-04-14T01:12:54.841Z,2.80
2023-04-14T01:15:33.209Z,1.85
2023-04-14T01:20:43.103Z,1.45
2023-04-14T01:23:22.122Z,1.33
2023-04-14T01:26:21.038Z,2.60
2023-04-14T01:31:42.480Z,2.58
2023-04-14T01:34:21.043Z,2.58
2023-04-14T01:36:57.632Z,2.17
2023-04-14T01:39:28.001Z,2.15
2023-04-14T01:41:58.626Z,3.25
2023-04-14T01:44:26.550Z,2.90
2023-04-14T01:46:57.927Z,2.90
2023-04-14T01:49:25.822Z,3.38
2023-04-14T01:51:53.744Z,3.08
2023-04-14T01:54:21.685Z,2.88
2023-04-14T01:56:49.864Z,2.60
2023-04-14T01:59:17.831Z,2.05
2023-04-14T02:01:46.358Z,1.35
2023-04-14T02:04:14.140Z,2.13
2023-04-14T02:06:42.884Z,1.80
2023-04-14T02:09:12.664Z,1.67
2023-04-14T02:11:40.881Z,1.63
2023-04-14T02:14:09.675Z,1.63
2023-04-14T02:16:37.879Z,1.80
2023-04-14T02:19:06.090Z,1.98
2023-04-14T02:21:35.134Z,1.80
2023-04-14T02:24:03.645Z,2.05
2023-04-14T02:26:33.637Z,1.85
2023-04-14T02:29:10.902Z,1.67
2023-04-14T02:31:44.914Z,1.85
2023-04-14T02:34:14.910Z,1.40
2023-04-14T02:36:46.782Z,1.90
2023-04-14T02:41:44.779Z,1.42
2023-04-14T02:44:23.565Z,1.65
2023-04-14T02:47:04.318Z,1.40
2023-04-14T02:49:37.764Z,1.73
2023-04-14T02:52:07.713Z,2.17
2023-04-14T02:54:36.215Z,2.17
2023-04-14T02:57:04.401Z,2.10
2023-04-14T02:59:39.470Z,2.03
2023-04-14T03:02:10.808Z,2.35
2023-04-14T03:04:42.237Z,2.72
2023-04-14T03:07:18.314Z,2.88
2023-04-14T03:09:48.219Z,2.85
2023-04-14T03:12:18.345Z,4.38
2023-04-14T03:14:46.204Z,2.67
2023-04-14T03:17:15.057Z,2.90
2023-04-14T03:19:43.856Z,2.63
2023-04-14T03:22:11.613Z,3.15
2023-04-14T03:24:39.653Z,2.67
2023-04-14T03:27:12.663Z,3.20
2023-04-14T03:29:45.942Z,3.25
2023-04-14T03:32:14.637Z,3.15
2023-04-14T03:34:42.925Z,3.58
2023-04-14T03:37:10.659Z,4.30
2023-04-14T03:39:39.509Z,3.30
2023-04-14T03:42:09.470Z,3.05
2023-04-14T03:44:40.134Z,2.13
2023-04-14T03:47:08.553Z,3.05
2023-04-14T03:49:38.852Z,3.00
2023-04-14T03:52:08.336Z,2.33
2023-04-14T03:54:38.424Z,2.17
2023-04-14T03:57:07.971Z,1.75
2023-04-14T03:59:37.042Z,1.90
2023-04-14T04:02:04.770Z,1.33
2023-04-14T04:04:32.641Z,1.67
2023-04-14T04:07:03.203Z,1.52
2023-04-14T04:09:31.630Z,1.40
2023-04-14T04:12:01.928Z,1.42
2023-04-14T04:14:31.664Z,1.15
2023-04-14T04:17:02.889Z,1.92
2023-04-14T04:19:31.613Z,1.60
2023-04-14T04:22:00.444Z,1.50
2023-04-14T04:24:31.730Z,3.45
2023-04-14T04:26:59.688Z,2.17
2023-04-14T04:29:27.582Z,1.50
2023-04-14T04:31:55.425Z,1.55
2023-04-14T04:34:25.854Z,1.83
2023-04-14T04:36:54.494Z,2.53
2023-04-14T04:39:22.106Z,3.50
2023-04-14T04:41:52.236Z,2.17
2023-04-14T04:44:21.173Z,1.90
2023-04-14T04:46:56.741Z,1.27
2023-04-14T04:49:27.645Z,2.33
2023-04-14T04:52:00.124Z,2.45
2023-04-14T04:54:28.753Z,2.35
2023-04-14T04:56:57.839Z,3.38
2023-04-14T04:59:25.727Z,2.35
2023-04-14T05:01:53.271Z,1.83
2023-04-14T05:04:20.810Z,1.92
2023-04-14T05:06:48.220Z,1.85
2023-04-14T05:09:15.739Z,1.88
2023-04-14T05:11:43.288Z,2.08
2023-04-14T05:14:10.804Z,3.53
2023-04-14T05:16:38.266Z,4.18
2023-04-14T05:19:05.560Z,3.92
2023-04-14T05:21:33.176Z,5.72
2023-04-14T05:24:00.854Z,3.55
2023-04-14T05:26:49.048Z,2.67
2023-04-14T05:29:15.554Z,2.47
2023-04-14T05:32:02.611Z,2.20
2023-04-14T05:34:30.361Z,3.20
2023-04-14T05:36:57.816Z,2.63
2023-04-14T05:39:25.236Z,1.10
2023-04-14T05:41:52.671Z,1.60
2023-04-14T05:44:20.059Z,1.98
2023-04-14T05:46:47.548Z,2.05
2023-04-14T05:49:14.961Z,2.50
2023-04-14T05:51:42.369Z,2.72
2023-04-14T05:54:10.125Z,2.03
2023-04-14T05:56:37.699Z,1.10
2023-04-14T05:59:05.055Z,1.38
2023-04-14T06:01:32.520Z,1.05
2023-04-14T06:04:00.487Z,1.52
2023-04-14T06:06:28.403Z,1.65
2023-04-14T06:08:55.769Z,2.05
2023-04-14T06:11:23.554Z,1.50
2023-04-14T06:13:50.999Z,1.77
2023-04-14T06:16:18.371Z,2.80
2023-04-14T06:18:45.763Z,2.75
2023-04-14T06:21:13.204Z,1.75
2023-04-14T06:23:40.731Z,2.22
2023-04-14T06:26:08.161Z,3.08
2023-04-14T06:28:35.606Z,2.45
2023-04-14T06:31:03.080Z,2.22
2023-04-14T06:33:30.571Z,1.20
2023-04-14T06:35:58.107Z,0.93
2023-04-14T06:38:25.651Z,1.00
2023-04-14T06:40:53.496Z,0.98
2023-04-14T06:43:21.052Z,1.00
2023-04-14T06:45:51.174Z,1.42
2023-04-14T06:48:18.720Z,2.10
2023-04-14T06:50:53.505Z,2.70
2023-04-14T06:53:21.130Z,2.83
2023-04-14T06:55:51.488Z,1.92
2023-04-14T06:58:18.884Z,3.40
2023-04-14T07:00:48.512Z,3.00
2023-04-14T07:03:17.807Z,1.30
2023-04-14T07:05:49.600Z,2.15
2023-04-14T07:08:19.000Z,1.35
2023-04-14T07:10:47.018Z,0.90
2023-04-14T07:13:14.570Z,1.15
2023-04-14T07:15:46.793Z,0.95
2023-04-14T07:18:14.474Z,1.00
2023-04-14T07:20:42.242Z,1.10
2023-04-14T07:23:09.887Z,1.00
2023-04-14T07:25:37.753Z,1.05
2023-04-14T07:28:06.553Z,1.42
2023-04-14T07:30:33.956Z,1.00
2023-04-14T07:33:02.805Z,1.17
2023-04-14T07:35:30.699Z,1.50
2023-04-14T07:37:58.197Z,1.80
2023-04-14T07:40:26.006Z,1.30
2023-04-14T07:42:53.499Z,2.30
2023-04-14T07:45:21.479Z,2.25
2023-04-14T07:47:48.922Z,1.50
2023-04-14T07:50:19.581Z,1.20
2023-04-14T07:52:47.541Z,1.65
2023-04-14T07:55:15.313Z,1.33
2023-04-14T07:57:43.154Z,1.63
2023-04-14T08:00:11.411Z,1.27
2023-04-14T08:02:51.712Z,1.83
2023-04-14T08:05:19.349Z,1.90
2023-04-14T08:07:46.883Z,1.40
2023-04-14T08:10:14.428Z,1.58
2023-04-14T08:12:41.922Z,0.75
2023-04-14T08:15:10.188Z,0.98
2023-04-14T08:17:37.895Z,1.20
2023-04-14T08:20:06.118Z,2.00
2023-04-14T08:22:33.740Z,0.90
2023-04-14T08:25:01.817Z,1.13
2023-04-14T08:27:30.397Z,0.90
2023-04-14T08:29:58.302Z,1.15
2023-04-14T08:32:25.917Z,1.08
2023-04-14T08:35:34.875Z,1.60
2023-04-14T08:37:44.434Z,2.00
2023-04-14T08:40:12.825Z,1.67
2023-04-14T08:42:40.791Z,1.00
2023-04-14T08:45:09.626Z,1.10
2023-04-14T08:47:40.224Z,1.08
2023-04-14T08:50:13.980Z,1.13
2023-04-14T08:52:44.252Z,0.85
2023-04-14T08:55:12.589Z,0.88
2023-04-14T08:57:41.796Z,1.08
2023-04-14T09:00:10.040Z,0.77
2023-04-14T09:02:40.820Z,1.30
2023-04-14T09:05:09.593Z,0.70
2023-04-14T09:07:37.374Z,0.77
2023-04-14T09:10:05.450Z,0.75
2023-04-14T09:12:33.148Z,0.70
2023-04-14T09:15:01.705Z,1.42
2023-04-14T09:17:31.864Z,1.90
2023-04-14T09:20:35.173Z,1.80
2023-04-14T09:22:48.316Z,2.20
2023-04-14T09:25:16.443Z,1.65
2023-04-14T09:27:44.246Z,2.20
2023-04-14T09:30:12.476Z,1.60
2023-04-14T09:32:40.793Z,2.50
2023-04-14T09:35:10.500Z,1.30
2023-04-14T09:37:49.043Z,2.05
2023-04-14T09:40:32.444Z,2.15
2023-04-14T09:43:01.063Z,1.35
2023-04-14T09:45:43.004Z,1.20
2023-04-14T09:48:11.597Z,1.38
2023-04-14T09:51:01.266Z,2.80
2023-04-14T09:53:30.791Z,1.38
2023-04-14T09:56:00.438Z,1.52
2023-04-14T09:58:47.930Z,1.50
2023-04-14T10:01:17.341Z,0.95
2023-04-14T10:03:47.621Z,1.27
2023-04-14T10:08:55.949Z,5.47
2023-04-14T10:11:31.123Z,8.45
2023-04-14T10:14:01.449Z,1.42
2023-04-14T10:16:30.018Z,1.40
2023-04-14T10:18:58.994Z,0.90
2023-04-14T10:21:28.296Z,1.23
2023-04-14T10:23:57.582Z,1.38
2023-04-14T10:26:25.461Z,2.40
2023-04-14T10:28:54.700Z,2.63
2023-04-14T10:34:11.344Z,1.02
2023-04-14T10:36:39.214Z,1.60
2023-04-14T10:39:08.999Z,2.17
2023-04-14T10:41:53.425Z,2.13
2023-04-14T10:44:36.989Z,0.93
2023-04-14T10:49:38.730Z,1.50
2023-04-14T10:55:01.730Z,1.90
2023-04-14T10:57:31.015Z,0.75
2023-04-14T11:00:02.746Z,0.80
2023-04-14T11:05:11.910Z,0.82
2023-04-14T11:12:58.050Z,2.30
2023-04-14T11:15:45.405Z,1.75
2023-04-14T11:18:20.207Z,1.42
2023-04-14T11:20:49.044Z,1.58
2023-04-14T11:23:16.934Z,1.33
2023-04-14T11:25:48.536Z,2.13
2023-04-14T11:28:16.269Z,1.73
2023-04-14T11:30:44.890Z,1.33
2023-04-14T11:33:15.676Z,1.15
2023-04-14T11:35:43.446Z,1.60
2023-04-14T11:38:11.790Z,1.80
2023-04-14T11:40:39.231Z,4.68
2023-04-14T11:43:08.213Z,2.70
2023-04-14T11:45:36.731Z,1.40
2023-04-14T11:48:06.255Z,1.33
2023-04-14T11:50:39.223Z,2.13
2023-04-14T11:53:11.303Z,2.22
2023-04-14T11:55:43.196Z,1.38
2023-04-14T11:58:11.331Z,2.55
2023-04-14T12:00:38.797Z,3.50
2023-04-14T12:03:06.860Z,1.10
2023-04-14T12:05:35.876Z,1.00
2023-04-14T12:08:06.042Z,1.60
2023-04-14T12:10:37.056Z,1.55
2023-04-14T12:13:09.276Z,1.38
2023-04-14T12:15:38.356Z,1.10
2023-04-14T12:18:10.625Z,5.50
2023-04-14T12:20:43.648Z,3.70
2023-04-14T12:23:11.651Z,1.23
2023-04-14T12:25:40.078Z,1.40
2023-04-14T12:28:07.880Z,2.33
2023-04-14T12:30:36.620Z,3.08
2023-04-14T12:33:11.798Z,2.72
2023-04-14T12:35:39.863Z,1.40
2023-04-14T12:38:11.399Z,1.10
2023-04-14T12:40:41.797Z,1.20
2023-04-14T12:43:09.575Z,0.95
2023-04-14T12:45:52.889Z,1.00
2023-04-14T12:48:21.446Z,1.00
2023-04-14T12:50:50.566Z,0.93
2023-04-14T12:53:28.902Z,1.08
2023-04-14T12:56:13.574Z,0.88
2023-04-14T12:58:43.337Z,0.90
2023-04-14T13:01:12.198Z,1.13
2023-04-14T13:03:46.890Z,0.90
2023-04-14T13:06:17.220Z,0.90
2023-04-14T13:11:24.858Z,0.90
2023-04-14T13:13:54.017Z,0.47
2023-04-14T13:16:22.776Z,0.90
2023-04-14T13:18:55.480Z,0.70
2023-04-14T13:21:23.230Z,0.90
2023-04-14T13:23:50.803Z,1.15
2023-04-14T13:26:18.432Z,1.05
2023-04-14T13:28:46.845Z,1.27
2023-04-14T13:31:17.478Z,1.70
2023-04-14T13:33:45.083Z,1.85
2023-04-14T13:36:13.747Z,2.25
2023-04-14T13:38:42.270Z,2.25
2023-04-14T13:41:09.797Z,2.30
2023-04-14T13:43:38.064Z,1.60
2023-04-14T13:46:05.473Z,1.58
2023-04-14T13:48:33.622Z,4.40
2023-04-14T13:51:02.694Z,5.95
2023-04-14T13:53:30.334Z,3.80
2023-04-14T13:55:57.737Z,3.15
2023-04-14T13:58:25.849Z,1.92
2023-04-14T14:00:53.547Z,3.38
2023-04-14T14:03:24.263Z,4.13
2023-04-14T14:05:51.766Z,4.00
2023-04-14T14:08:19.312Z,4.57
2023-04-14T14:10:46.626Z,2.95
2023-04-14T14:13:15.526Z,2.78
2023-04-14T14:15:45.510Z,1.42
2023-04-14T14:18:13.791Z,0.75
2023-04-14T14:20:41.708Z,0.80
2023-04-14T14:23:12.440Z,0.50
2023-04-14T14:25:41.527Z,1.05
2023-04-14T14:28:09.469Z,1.50
2023-04-14T14:30:37.209Z,1.17
2023-04-14T14:33:05.188Z,0.65
2023-04-14T14:35:32.758Z,1.70
2023-04-14T14:38:00.997Z,1.52
2023-04-14T14:40:29.457Z,1.10
2023-04-14T14:42:56.923Z,0.95
2023-04-14T14:45:30.380Z,0.95
2023-04-14T14:47:59.494Z,0.70
2023-04-14T14:50:27.194Z,0.85
2023-04-14T14:52:57.139Z,0.80
2023-04-14T14:55:24.684Z,0.93
2023-04-14T14:57:52.134Z,0.88
2023-04-14T15:00:19.939Z,0.90
2023-04-14T15:02:47.805Z,0.77
2023-04-14T15:05:15.565Z,1.15
2023-04-14T15:07:43.150Z,0.77
2023-04-14T15:10:10.508Z,0.80
2023-04-14T15:12:37.941Z,0.80
2023-04-14T15:15:06.660Z,0.90
2023-04-14T15:17:34.697Z,0.80
2023-04-14T15:20:04.927Z,0.70
2023-04-14T15:22:32.800Z,0.63
2023-04-14T15:25:02.849Z,1.08
2023-04-14T15:27:30.649Z,1.38
2023-04-14T15:29:58.162Z,1.20
2023-04-14T15:32:27.030Z,1.23
2023-04-14T15:34:54.901Z,1.95
2023-04-14T15:37:22.399Z,1.25
2023-04-14T15:39:50.501Z,1.80
2023-04-14T15:42:17.849Z,1.10
2023-04-14T15:44:45.137Z,0.93
2023-04-14T15:47:12.519Z,1.25
2023-04-14T15:49:39.860Z,1.38
2023-04-14T15:52:07.319Z,0.85
2023-04-14T15:54:34.970Z,1.50
2023-04-14T15:57:02.688Z,2.00
2023-04-14T15:59:30.306Z,1.83
2023-04-14T16:01:58.273Z,2.05
2023-04-14T16:04:26.031Z,2.40
2023-04-14T16:06:54.873Z,1.30
2023-04-14T16:09:22.360Z,1.60
2023-04-14T16:11:49.891Z,1.50
2023-04-14T16:14:17.416Z,1.00
2023-04-14T16:16:47.406Z,1.23
2023-04-14T16:19:16.489Z,1.13
2023-04-14T16:21:43.836Z,1.00
2023-04-14T16:24:11.425Z,1.15
2023-04-14T16:26:38.831Z,1.15
2023-04-14T16:29:06.340Z,0.70
2023-04-14T16:31:33.916Z,0.93
2023-04-14T16:34:01.826Z,1.00
2023-04-14T16:36:29.505Z,0.57
2023-04-14T16:38:57.045Z,0.90
2023-04-14T16:41:24.531Z,0.80
2023-04-14T16:43:52.274Z,1.42
2023-04-14T16:46:19.682Z,0.70
2023-04-14T16:48:47.169Z,1.00
2023-04-14T16:51:14.839Z,1.00
2023-04-14T16:53:42.955Z,1.10
2023-04-14T16:56:11.564Z,0.77
2023-04-14T16:58:40.261Z,1.20
2023-04-14T17:01:08.066Z,0.80
2023-04-14T17:03:35.978Z,0.75
2023-04-14T17:06:03.633Z,0.98
2023-04-14T17:08:31.194Z,0.73
2023-04-14T17:10:58.848Z,1.10
2023-04-14T17:13:27.227Z,0.93
2023-04-14T17:16:05.588Z,1.10
2023-04-14T17:18:35.718Z,0.68
2023-04-14T17:21:03.654Z,1.00
2023-04-14T17:23:31.380Z,1.30
2023-04-14T17:26:00.049Z,0.93
2023-04-14T17:28:27.824Z,1.10
2023-04-14T17:30:56.176Z,0.90
2023-04-14T17:33:27.624Z,1.00
2023-04-14T17:35:55.916Z,1.02
2023-04-14T17:38:23.772Z,0.82
2023-04-14T17:40:52.114Z,0.90
2023-04-14T17:43:19.431Z,1.20
2023-04-14T17:45:50.728Z,1.20
2023-04-14T17:48:19.760Z,1.33
2023-04-14T17:50:47.298Z,1.30
2023-04-14T17:53:16.521Z,1.20
2023-04-14T17:55:44.110Z,0.82
2023-04-14T17:58:11.503Z,1.10
2023-04-14T18:00:39.514Z,1.40
2023-04-14T18:03:06.926Z,1.42
2023-04-14T18:05:34.284Z,1.20
2023-04-14T18:08:01.789Z,1.50
2023-04-14T18:10:29.208Z,1.50
2023-04-14T18:12:56.761Z,1.90
2023-04-14T18:15:24.170Z,1.95
2023-04-14T18:17:51.538Z,2.20
2023-04-14T18:20:25.019Z,2.38
2023-04-14T18:22:54.433Z,2.42
2023-04-14T18:25:21.915Z,2.38
2023-04-14T18:30:20.439Z,4.05
2023-04-14T18:32:47.756Z,4.20
2023-04-14T18:35:16.006Z,4.25
2023-04-14T18:37:43.597Z,4.25
2023-04-14T18:40:11.146Z,3.97
2023-04-14T18:42:39.436Z,3.03
2023-04-14T18:45:07.497Z,2.50
2023-04-14T18:47:35.102Z,1.65
2023-04-14T18:50:03.374Z,1.98
2023-04-14T18:52:30.980Z,1.83
2023-04-14T18:54:58.564Z,2.17
2023-04-14T18:57:25.987Z,1.50
2023-04-14T18:59:53.599Z,1.52
2023-04-14T19:02:21.427Z,1.52
2023-04-14T19:04:49.340Z,1.50
2023-04-14T19:07:21.266Z,4.90
2023-04-14T19:14:49.560Z,1.02
2023-04-14T19:17:17.190Z,0.90
2023-04-14T19:19:45.334Z,0.93
2023-04-14T19:22:13.077Z,0.65
2023-04-14T19:24:40.633Z,0.77
2023-04-14T19:27:10.587Z,0.90
2023-04-14T19:29:38.147Z,0.73
2023-04-14T19:32:06.064Z,0.55
2023-04-14T19:34:33.714Z,1.20
2023-04-14T19:37:01.425Z,0.65
2023-04-14T19:39:29.064Z,0.88
2023-04-14T19:41:58.231Z,0.73
2023-04-14T19:44:25.656Z,0.80
2023-04-14T19:46:53.343Z,1.60
2023-04-14T19:49:20.988Z,4.93
2023-04-14T19:51:49.640Z,1.50
2023-04-14T19:54:17.000Z,1.27
2023-04-14T19:56:45.313Z,1.35
2023-04-14T19:59:12.873Z,1.00
2023-04-14T20:01:41.264Z,0.80
2023-04-14T20:04:12.448Z,0.93
2023-04-14T20:06:41.427Z,0.80
2023-04-14T20:09:09.404Z,1.00
2023-04-14T20:11:37.673Z,0.82
2023-04-14T20:14:05.323Z,1.05
2023-04-14T20:16:32.926Z,0.82
2023-04-14T20:19:00.639Z,1.10
2023-04-14T20:21:30.337Z,1.08
2023-04-14T20:23:58.678Z,0.70
2023-04-14T20:26:26.004Z,0.68
2023-04-14T20:28:54.270Z,0.63
2023-04-14T20:31:22.463Z,0.70
2023-04-14T20:33:50.031Z,0.75
2023-04-14T20:36:17.376Z,0.68
2023-04-14T20:38:44.733Z,0.60
2023-04-14T20:41:12.448Z,0.85
2023-04-14T20:43:39.817Z,1.27
2023-04-14T20:46:07.273Z,1.27
2023-04-14T20:48:34.662Z,0.60
2023-04-14T20:51:01.966Z,0.80
2023-04-14T20:53:30.283Z,0.98
2023-04-14T20:55:57.771Z,1.05
2023-04-14T20:58:25.113Z,0.70
2023-04-14T21:00:52.332Z,0.75
2023-04-14T21:03:19.801Z,0.80
2023-04-14T21:05:47.702Z,0.80
2023-04-14T21:08:15.151Z,0.60
2023-04-14T21:11:15.993Z,0.45
2023-04-14T21:15:29.495Z,0.50
2023-04-14T21:16:17.634Z,0.32
2023-04-14T21:18:45.077Z,0.45
2023-04-14T21:21:13.433Z,0.50
2023-04-14T21:23:41.449Z,0.32
2023-04-14T21:26:08.802Z,0.40
2023-04-14T21:28:36.111Z,0.52
2023-04-14T21:31:03.924Z,0.80
2023-04-14T21:33:32.684Z,0.70
2023-04-14T21:36:00.683Z,0.40
2023-04-14T21:38:28.252Z,0.30
2023-04-14T21:40:55.976Z,0.38
2023-04-14T21:43:23.353Z,0.52
2023-04-14T21:45:50.834Z,0.47
2023-04-14T21:48:19.474Z,0.38
2023-04-14T21:50:47.119Z,0.60
2023-04-14T21:53:14.401Z,0.50
2023-04-14T21:55:42.364Z,0.43
2023-04-14T21:58:09.686Z,0.52
2023-04-14T22:00:37.477Z,0.57
2023-04-14T22:03:05.102Z,0.60
2023-04-14T22:05:32.582Z,0.35
2023-04-14T22:08:00.097Z,0.70
2023-04-14T22:10:32.457Z,0.32
2023-04-14T22:13:00.738Z,0.35
2023-04-14T22:15:28.098Z,0.47
2023-04-14T22:17:55.672Z,0.30
2023-04-14T22:20:23.993Z,0.80
2023-04-14T22:22:51.362Z,0.43
2023-04-14T22:25:19.165Z,0.38
2023-04-14T22:27:46.885Z,0.60
2023-04-14T22:30:14.346Z,0.65
2023-04-14T22:32:41.776Z,0.63
2023-04-14T22:35:09.376Z,0.68
2023-04-14T22:37:36.950Z,0.32
2023-04-14T22:40:04.788Z,0.30
2023-04-14T22:42:32.060Z,0.50
2023-04-14T22:44:59.426Z,0.50
2023-04-14T22:47:26.756Z,0.50
2023-04-14T22:49:54.192Z,0.40
2023-04-14T22:52:21.512Z,0.50
2023-04-14T22:54:49.027Z,0.85
2023-04-14T22:57:16.348Z,0.30
2023-04-14T22:59:43.693Z,0.60
2023-04-14T23:02:11.805Z,0.63
2023-04-14T23:04:39.663Z,0.55
2023-04-14T23:07:07.076Z,0.30
2023-04-14T23:09:34.377Z,0.70
2023-04-14T23:12:02.762Z,1.02
2023-04-14T23:14:30.153Z,0.50
2023-04-14T23:16:58.453Z,0.30
2023-04-14T23:19:26.342Z,0.40
2023-04-14T23:21:53.692Z,0.35
2023-04-14T23:24:22.572Z,0.60
2023-04-14T23:26:49.882Z,0.43
2023-04-14T23:29:17.171Z,0.68
2023-04-14T23:31:44.565Z,0.50
2023-04-14T23:34:11.960Z,0.35
2023-04-14T23:36:39.359Z,0.50
2023-04-14T23:39:06.679Z,0.45
2023-04-14T23:41:34.003Z,0.40
2023-04-14T23:44:01.698Z,0.35
2023-04-14T23:46:29.149Z,0.60
2023-04-14T23:48:57.168Z,0.50
2023-04-14T23:51:24.840Z,0.50
2023-04-14T23:53:52.320Z,0.60
2023-04-14T23:56:19.711Z,0.70
2023-04-14T23:58:47.325Z,0.40
